Terminal Aerodrome Forecast
Issued by NWS

Home | Current Version | Previous Version | Text Only | Print | Product List | Glossary On
Versions: 1 2 3 4 5 6 7 8 9 10 11 12 13 14 15 16 17 18 19
000
FTUS43 KSGF 250011 AAA
TAFJLN
TAF AMD
KJLN 250011Z 2500/2524 14010G18KT P6SM VCTS BKN035CB
      TEMPO 2501/2503 4SM -TSRA BKN015CB
     FM250300 14006KT P6SM -SHRA BKN070
     FM250600 16004KT P6SM -SHRA BKN030
     FM250800 22004KT 6SM -SHRA BKN035
     FM251200 31006KT 6SM SHRA OVC025
     FM251300 31007KT 5SM SHRA OVC015
     FM251800 29010KT P6SM OVC015
     FM252300 29008KT P6SM BKN015=

USA.gov is the U.S. government's official web portal to all federal, state and local government web resources and services.